createdAt,value
2022-09-07T00:00:59.122Z,5.03
2022-09-07T00:03:26.108Z,5.25
2022-09-07T00:05:53.138Z,5.22
2022-09-07T00:08:23.434Z,4.70
2022-09-07T00:10:57.719Z,4.63
2022-09-07T00:13:26.439Z,4.53
2022-09-07T00:15:53.177Z,4.53
2022-09-07T00:18:20.334Z,4.10
2022-09-07T00:20:47.059Z,4.45
2022-09-07T00:23:13.838Z,5.05
2022-09-07T00:25:41.037Z,5.10
2022-09-07T00:28:08.993Z,4.60
2022-09-07T00:30:41.676Z,4.40
2022-09-07T00:33:09.118Z,4.20
2022-09-07T00:35:42.611Z,4.18
2022-09-07T00:38:09.427Z,3.88
2022-09-07T00:40:36.454Z,4.70
2022-09-07T00:43:03.938Z,4.40
2022-09-07T00:45:30.720Z,4.50
2022-09-07T00:48:05.649Z,4.38
2022-09-07T00:50:39.734Z,4.80
2022-09-07T00:53:15.672Z,4.75
2022-09-07T00:55:44.431Z,4.28
2022-09-07T00:58:11.843Z,4.55
2022-09-07T01:00:40.746Z,4.85
2022-09-07T01:03:08.513Z,4.30
2022-09-07T01:05:42.803Z,4.72
2022-09-07T01:08:12.047Z,4.60
2022-09-07T01:10:39.199Z,4.57
2022-09-07T01:13:06.333Z,4.50
2022-09-07T01:15:51.130Z,4.40
2022-09-07T01:18:51.951Z,4.20
2022-09-07T01:21:53.432Z,3.80
2022-09-07T01:24:31.926Z,3.90
2022-09-07T01:27:19.536Z,3.90
2022-09-07T01:30:07.191Z,4.30
2022-09-07T01:33:10.874Z,4.28
2022-09-07T01:36:06.040Z,3.90
2022-09-07T01:38:54.054Z,4.10
2022-09-07T01:41:20.768Z,3.60
2022-09-07T01:44:00.723Z,4.03
2022-09-07T01:46:38.518Z,3.83
2022-09-07T01:49:21.697Z,3.20
2022-09-07T01:51:53.195Z,3.35
2022-09-07T01:54:34.957Z,3.60
2022-09-07T01:57:09.018Z,3.70
2022-09-07T01:59:53.515Z,3.80
2022-09-07T02:02:28.749Z,3.00
2022-09-07T02:05:07.747Z,3.38
2022-09-07T02:07:51.243Z,3.58
2022-09-07T02:10:25.579Z,3.30
2022-09-07T02:12:59.414Z,3.53
2022-09-07T02:15:41.870Z,3.50
2022-09-07T02:18:10.476Z,3.67
2022-09-07T02:20:39.386Z,3.65
2022-09-07T02:59:19.680Z,3.65
2022-09-07T03:02:11.629Z,3.90
2022-09-07T03:04:50.281Z,3.40
2022-09-07T03:07:22.699Z,3.42
2022-09-07T03:12:18.006Z,3.33
2022-09-07T03:14:45.473Z,3.85
2022-09-07T03:17:13.148Z,3.40
2022-09-07T03:19:40.042Z,3.53
2022-09-07T03:22:06.891Z,3.45
2022-09-07T03:24:33.708Z,3.70
2022-09-07T03:27:00.686Z,3.38
2022-09-07T03:29:27.536Z,3.40
2022-09-07T03:31:54.384Z,3.80
2022-09-07T03:34:21.248Z,3.20
2022-09-07T03:36:47.998Z,3.17
2022-09-07T03:39:14.682Z,3.40
2022-09-07T03:41:41.518Z,3.42
2022-09-07T03:44:08.487Z,3.35
2022-09-07T03:46:35.553Z,3.28
2022-09-07T03:49:02.723Z,3.00
2022-09-07T03:51:29.589Z,3.28
2022-09-07T03:53:57.340Z,3.60
2022-09-07T03:56:25.191Z,3.10
2022-09-07T03:58:54.473Z,3.20
2022-09-07T04:01:24.278Z,3.40
2022-09-07T04:03:51.801Z,3.55
2022-09-07T04:06:19.532Z,3.10
2022-09-07T04:08:46.543Z,3.95
2022-09-07T04:11:16.031Z,4.30
2022-09-07T04:13:43.274Z,3.80
2022-09-07T04:16:14.685Z,3.55
2022-09-07T04:18:41.842Z,3.40
2022-09-07T04:21:09.188Z,3.33
2022-09-07T04:23:39.274Z,3.08
2022-09-07T04:26:06.360Z,3.20
2022-09-07T04:28:33.414Z,3.65
2022-09-07T04:31:02.001Z,3.20
2022-09-07T04:33:31.768Z,3.30
2022-09-07T04:36:02.315Z,3.92
2022-09-07T04:38:30.743Z,3.63
2022-09-07T04:41:23.395Z,3.25
2022-09-07T04:43:55.021Z,3.35
2022-09-07T04:46:27.029Z,3.10
2022-09-07T04:48:59.186Z,3.25
2022-09-07T04:51:28.477Z,3.00
2022-09-07T04:53:56.974Z,3.45
2022-09-07T04:56:24.096Z,3.20
2022-09-07T04:58:51.507Z,3.45
2022-09-07T05:01:20.650Z,4.00
2022-09-07T05:03:47.762Z,3.92
2022-09-07T05:06:16.295Z,3.53
2022-09-07T05:08:45.836Z,3.47
2022-09-07T05:11:14.231Z,3.83
2022-09-07T05:13:41.687Z,3.85
2022-09-07T05:16:10.532Z,4.05
2022-09-07T05:18:37.663Z,3.97
2022-09-07T05:21:12.360Z,4.03
2022-09-07T05:23:39.463Z,4.32
2022-09-07T05:26:07.267Z,3.70
2022-09-07T05:28:35.094Z,3.72
2022-09-07T05:31:22.985Z,4.10
2022-09-07T05:36:41.399Z,3.85
2022-09-07T05:39:08.555Z,3.53
2022-09-07T05:41:35.673Z,3.95
2022-09-07T05:46:51.122Z,4.00
2022-09-07T05:49:17.911Z,4.50
2022-09-07T05:51:44.638Z,4.00
2022-09-07T05:54:12.074Z,4.90
2022-09-07T05:56:38.995Z,4.25
2022-09-07T05:59:06.121Z,4.07
2022-09-07T06:01:35.104Z,3.83
2022-09-07T06:04:02.018Z,4.43
2022-09-07T06:06:28.757Z,4.47
2022-09-07T06:08:57.551Z,4.47
2022-09-07T06:11:26.136Z,4.60
2022-09-07T06:13:54.098Z,4.95
2022-09-07T06:16:21.188Z,4.40
2022-09-07T06:18:49.583Z,4.38
2022-09-07T06:21:23.867Z,4.80
2022-09-07T06:23:51.317Z,4.78
2022-09-07T06:26:19.595Z,4.55
2022-09-07T06:28:49.844Z,4.55
2022-09-07T06:31:22.025Z,5.07
2022-09-07T06:33:50.811Z,6.05
2022-09-07T06:36:21.598Z,4.85
2022-09-07T06:38:49.405Z,5.00
2022-09-07T06:44:08.301Z,4.53
2022-09-07T06:49:23.419Z,3.88
2022-09-07T06:51:50.212Z,3.67
2022-09-07T06:57:09.099Z,3.53
2022-09-07T06:59:37.217Z,3.70
2022-09-07T07:02:05.312Z,3.55
2022-09-07T07:04:35.108Z,4.10
2022-09-07T07:07:04.679Z,2.70
2022-09-07T07:09:31.376Z,3.45
2022-09-07T07:11:58.090Z,3.55
2022-09-07T07:14:24.852Z,3.00
2022-09-07T07:16:51.556Z,2.97
2022-09-07T07:19:18.312Z,2.83
2022-09-07T07:22:07.761Z,2.22
2022-09-07T07:24:31.844Z,1.95
2022-09-07T07:26:58.511Z,2.15
2022-09-07T07:29:28.233Z,2.08
2022-09-07T07:31:55.998Z,2.08
2022-09-07T07:34:22.816Z,2.00
2022-09-07T07:36:49.526Z,2.05
2022-09-07T07:42:05.077Z,2.13
2022-09-07T07:44:32.599Z,2.20
2022-09-07T07:46:59.455Z,2.08
2022-09-07T07:49:26.797Z,2.17
2022-09-07T07:54:43.786Z,1.65
2022-09-07T07:57:10.589Z,2.05
2022-09-07T07:59:37.705Z,2.33
2022-09-07T08:02:08.520Z,2.10
2022-09-07T08:04:35.860Z,2.00
2022-09-07T08:07:09.538Z,1.80
2022-09-07T08:09:37.888Z,2.03
2022-09-07T08:12:04.581Z,2.13
2022-09-07T08:14:31.550Z,2.28
2022-09-07T08:16:58.262Z,2.92
2022-09-07T08:19:24.879Z,1.95
2022-09-07T08:21:51.527Z,2.47
2022-09-07T08:24:18.354Z,2.00
2022-09-07T08:26:45.105Z,1.52
2022-09-07T08:29:11.902Z,2.22
2022-09-07T08:31:38.745Z,2.15
2022-09-07T08:34:07.436Z,2.03
2022-09-07T08:36:34.123Z,2.03
2022-09-07T08:39:00.808Z,1.95
2022-09-07T08:41:53.970Z,1.88
2022-09-07T08:44:33.974Z,1.58
2022-09-07T08:47:11.608Z,1.70
2022-09-07T08:50:01.178Z,2.55
2022-09-07T08:52:57.927Z,2.08
2022-09-07T08:55:33.541Z,1.75
2022-09-07T08:58:32.535Z,1.90
2022-09-07T09:06:45.384Z,2.08
2022-09-07T09:09:49.755Z,2.35
2022-09-07T09:12:41.367Z,2.08
2022-09-07T09:15:23.356Z,2.22
2022-09-07T09:18:02.052Z,2.03
2022-09-07T09:21:02.222Z,2.63
2022-09-07T09:23:39.534Z,2.42
2022-09-07T09:26:13.612Z,2.08
2022-09-07T09:28:40.490Z,1.80
2022-09-07T09:31:19.341Z,2.38
2022-09-07T09:34:07.278Z,2.20
2022-09-07T09:36:40.472Z,2.80
2022-09-07T09:39:26.141Z,2.30
2022-09-07T09:41:55.292Z,2.25
2022-09-07T09:44:23.395Z,1.70
2022-09-07T09:49:41.477Z,1.90
2022-09-07T09:52:31.803Z,1.92
2022-09-07T10:03:56.513Z,1.75
2022-09-07T10:06:24.970Z,2.13
2022-09-07T10:09:17.907Z,1.80
2022-09-07T10:14:44.181Z,2.08
2022-09-07T10:17:21.636Z,2.22
2022-09-07T10:19:49.612Z,2.13
2022-09-07T10:22:38.635Z,2.40
2022-09-07T10:25:39.541Z,1.90
2022-09-07T10:28:12.637Z,1.98
2022-09-07T10:31:14.510Z,2.35
2022-09-07T10:36:42.386Z,1.75
2022-09-07T10:39:17.183Z,2.53
2022-09-07T10:41:55.716Z,2.20
2022-09-07T10:44:57.880Z,1.90
2022-09-07T10:47:50.179Z,1.67
2022-09-07T10:50:35.806Z,2.45
2022-09-07T10:54:29.398Z,1.90
2022-09-07T10:56:24.091Z,1.88
2022-09-07T10:59:19.678Z,1.70
2022-09-07T11:01:53.618Z,2.00
2022-09-07T11:04:44.237Z,2.20
2022-09-07T11:07:48.407Z,2.22
2022-09-07T11:10:31.044Z,1.92
2022-09-07T11:13:02.044Z,1.67
2022-09-07T11:15:32.218Z,1.83
2022-09-07T11:18:20.272Z,1.90
2022-09-07T11:20:55.485Z,2.00
2022-09-07T11:23:36.804Z,1.73
2022-09-07T11:26:19.571Z,2.38
2022-09-07T11:32:36.955Z,2.13
2022-09-07T11:35:41.937Z,2.15
2022-09-07T11:38:32.972Z,2.05
2022-09-07T11:41:15.095Z,1.80
2022-09-07T11:44:02.864Z,1.85
2022-09-07T11:46:45.568Z,2.00
2022-09-07T11:49:26.181Z,1.67
2022-09-07T11:52:05.097Z,1.80
2022-09-07T11:54:41.415Z,2.00
2022-09-07T11:57:36.962Z,2.15
2022-09-07T12:00:22.734Z,2.50
2022-09-07T12:03:13.140Z,2.13
2022-09-07T12:06:07.867Z,2.70
2022-09-07T12:09:03.353Z,2.65
2022-09-07T12:11:35.939Z,2.60
2022-09-07T12:14:30.307Z,2.55
2022-09-07T12:17:24.756Z,2.35
2022-09-07T12:20:10.919Z,2.95
2022-09-07T12:22:38.038Z,2.75
2022-09-07T12:25:09.920Z,2.85
2022-09-07T12:27:38.799Z,2.42
2022-09-07T12:30:05.372Z,2.10
2022-09-07T12:32:56.071Z,2.15
2022-09-07T12:35:33.768Z,2.47
2022-09-07T12:38:01.877Z,2.63
2022-09-07T12:40:28.658Z,2.40
2022-09-07T12:43:13.930Z,2.65
2022-09-07T12:45:40.730Z,2.97
2022-09-07T12:48:16.707Z,2.92
2022-09-07T12:50:55.313Z,2.35
2022-09-07T12:53:22.053Z,2.40
2022-09-07T12:56:16.738Z,2.40
2022-09-07T12:58:46.860Z,2.47
2022-09-07T13:01:30.472Z,2.88
2022-09-07T13:04:09.433Z,3.83
2022-09-07T13:07:05.820Z,2.78
2022-09-07T13:09:37.466Z,2.85
2022-09-07T13:15:32.886Z,2.15
2022-09-07T13:18:01.136Z,2.22
2022-09-07T13:20:36.229Z,2.33
2022-09-07T13:23:22.821Z,2.60
2022-09-07T13:25:53.323Z,2.03
2022-09-07T13:28:45.689Z,2.30
2022-09-07T13:31:34.419Z,2.47
2022-09-07T13:34:21.192Z,2.28
2022-09-07T13:36:48.770Z,2.55
2022-09-07T13:39:20.546Z,2.47
2022-09-07T13:41:53.874Z,2.47
2022-09-07T13:44:31.740Z,2.22
2022-09-07T13:47:08.767Z,2.40
2022-09-07T13:49:55.869Z,2.10
2022-09-07T13:52:41.826Z,2.35
2022-09-07T13:55:42.277Z,2.33
2022-09-07T13:58:37.763Z,2.65
2022-09-07T14:01:13.222Z,2.17
2022-09-07T14:03:54.162Z,2.75
2022-09-07T14:06:21.824Z,2.50
2022-09-07T14:08:51.576Z,1.73
2022-09-07T14:11:20.954Z,2.25
2022-09-07T14:14:26.220Z,1.70
2022-09-07T14:17:09.047Z,1.70
2022-09-07T14:19:41.864Z,1.77
2022-09-07T14:22:16.436Z,1.95
2022-09-07T14:24:49.459Z,1.67
2022-09-07T14:27:25.086Z,1.50
2022-09-07T14:29:52.583Z,1.77
2022-09-07T14:32:24.025Z,1.60
2022-09-07T14:34:52.074Z,1.95
2022-09-07T14:37:21.474Z,1.80
2022-09-07T14:39:50.706Z,1.55
2022-09-07T14:42:23.903Z,1.60
2022-09-07T14:44:54.164Z,1.20
2022-09-07T14:47:29.650Z,1.23
2022-09-07T14:50:04.799Z,1.00
2022-09-07T14:52:43.582Z,1.40
2022-09-07T14:55:30.613Z,1.67
2022-09-07T14:58:22.115Z,1.40
2022-09-07T15:04:01.139Z,1.70
2022-09-07T15:09:27.587Z,1.67
2022-09-07T15:12:15.622Z,1.60
2022-09-07T15:14:42.345Z,1.60
2022-09-07T15:20:32.318Z,1.60
2022-09-07T15:22:59.805Z,1.58
2022-09-07T15:25:26.868Z,2.05
2022-09-07T15:27:54.941Z,1.38
2022-09-07T15:30:22.167Z,1.60
2022-09-07T15:32:49.512Z,1.67
2022-09-07T15:35:16.342Z,1.40
2022-09-07T15:40:33.279Z,1.30
2022-09-07T15:43:00.992Z,1.30
2022-09-07T15:45:28.762Z,1.17
2022-09-07T15:47:56.297Z,1.48
2022-09-07T15:50:23.412Z,1.33
2022-09-07T15:52:50.585Z,1.08
2022-09-07T15:55:17.897Z,1.33
2022-09-07T15:57:49.233Z,1.20
2022-09-07T16:00:17.489Z,1.20
2022-09-07T16:05:31.518Z,1.33
2022-09-07T16:10:53.352Z,1.15
2022-09-07T16:13:23.838Z,1.10
2022-09-07T16:15:50.846Z,1.33
2022-09-07T16:18:18.115Z,0.90
2022-09-07T16:20:45.786Z,1.20
2022-09-07T16:23:14.682Z,1.10
2022-09-07T16:25:54.014Z,0.95
2022-09-07T16:28:20.771Z,1.08
2022-09-07T16:30:48.125Z,1.00
2022-09-07T16:33:15.244Z,1.38
2022-09-07T16:35:42.178Z,1.10
2022-09-07T16:40:55.523Z,0.90
2022-09-07T16:43:22.158Z,1.10
2022-09-07T16:46:04.710Z,1.10
2022-09-07T16:48:34.051Z,1.10
2022-09-07T16:51:02.743Z,0.93
2022-09-07T16:53:31.541Z,0.90
2022-09-07T16:56:05.704Z,1.10
2022-09-07T16:58:38.524Z,1.45
2022-09-07T17:01:06.838Z,1.20
2022-09-07T17:03:34.150Z,0.95
2022-09-07T17:06:01.890Z,1.23
2022-09-07T17:08:28.753Z,1.00
2022-09-07T17:11:00.763Z,1.33
2022-09-07T17:13:28.259Z,1.17
2022-09-07T17:15:55.105Z,1.02
2022-09-07T17:19:28.909Z,1.08
2022-09-07T17:21:09.799Z,1.00
2022-09-07T17:23:45.595Z,1.20
2022-09-07T17:26:19.567Z,1.67
2022-09-07T17:28:49.905Z,1.50
2022-09-07T17:34:18.582Z,1.90
2022-09-07T17:36:45.487Z,1.90
2022-09-07T17:39:17.103Z,2.17
2022-09-07T17:41:45.438Z,2.70
2022-09-07T17:44:12.516Z,2.58
2022-09-07T17:46:39.745Z,3.13
2022-09-07T17:49:09.548Z,3.33
2022-09-07T17:51:38.074Z,2.92
2022-09-07T17:54:10.959Z,2.42
2022-09-07T17:56:40.493Z,2.40
2022-09-07T18:01:55.268Z,2.35
2022-09-07T18:04:22.606Z,2.05
2022-09-07T18:06:49.745Z,1.40
2022-09-07T18:09:16.631Z,1.83
2022-09-07T18:11:48.136Z,1.90
2022-09-07T18:16:44.147Z,1.60
2022-09-07T18:19:11.943Z,1.75
2022-09-07T18:21:41.807Z,1.92
2022-09-07T18:24:13.604Z,1.80
2022-09-07T18:26:40.876Z,1.48
2022-09-07T18:29:22.260Z,1.77
2022-09-07T18:31:55.237Z,2.03
2022-09-07T18:34:22.584Z,1.85
2022-09-07T18:36:49.275Z,2.13
2022-09-07T18:39:16.381Z,1.90
2022-09-07T18:41:43.039Z,2.17
2022-09-07T18:46:56.474Z,2.38
2022-09-07T18:49:23.571Z,1.65
2022-09-07T18:54:38.862Z,1.98
2022-09-07T18:57:06.916Z,1.77
2022-09-07T18:59:33.976Z,1.13
2022-09-07T19:02:04.388Z,1.50
2022-09-07T19:07:28.815Z,1.35
2022-09-07T19:09:56.400Z,1.00
2022-09-07T19:12:24.362Z,1.08
2022-09-07T19:14:51.501Z,1.00
2022-09-07T19:17:18.191Z,1.20
2022-09-07T19:19:44.938Z,1.00
2022-09-07T19:22:11.592Z,0.90
2022-09-07T19:24:38.213Z,0.90
2022-09-07T19:27:07.044Z,1.20
2022-09-07T19:29:33.669Z,0.90
2022-09-07T19:32:07.463Z,0.90
2022-09-07T19:34:38.831Z,1.42
2022-09-07T19:37:07.148Z,1.27
2022-09-07T19:39:33.930Z,2.08
2022-09-07T19:42:02.234Z,0.75
2022-09-07T19:44:29.345Z,1.00
2022-09-07T19:46:56.093Z,1.50
2022-09-07T19:49:23.064Z,1.13
2022-09-07T19:51:51.674Z,1.30
2022-09-07T19:54:18.757Z,1.27
2022-09-07T19:56:45.566Z,1.20
2022-09-07T19:59:12.714Z,1.30
2022-09-07T20:01:40.725Z,1.05
2022-09-07T20:04:10.800Z,1.30
2022-09-07T20:06:39.286Z,1.20
2022-09-07T20:09:07.945Z,1.27
2022-09-07T20:11:36.069Z,1.33
2022-09-07T20:14:03.212Z,1.17
2022-09-07T20:16:31.066Z,1.60
2022-09-07T20:18:58.963Z,1.67
2022-09-07T20:21:26.177Z,1.63
2022-09-07T20:23:52.951Z,1.50
2022-09-07T20:26:21.898Z,1.73
2022-09-07T20:29:10.944Z,1.60
2022-09-07T20:31:44.108Z,1.45
2022-09-07T20:34:11.346Z,1.65
2022-09-07T20:36:38.044Z,1.40
2022-09-07T20:39:05.043Z,1.63
2022-09-07T20:41:34.001Z,1.25
2022-09-07T20:44:02.666Z,1.58
2022-09-07T20:46:30.650Z,1.52
2022-09-07T20:48:57.717Z,1.77
2022-09-07T20:51:24.657Z,1.48
2022-09-07T20:53:51.510Z,2.13
2022-09-07T20:56:23.408Z,1.25
2022-09-07T20:58:59.863Z,1.40
2022-09-07T21:01:27.008Z,1.33
2022-09-07T21:03:56.419Z,1.20
2022-09-07T21:06:25.171Z,1.42
2022-09-07T21:08:52.050Z,1.20
2022-09-07T21:11:22.132Z,1.30
2022-09-07T21:13:57.011Z,1.40
2022-09-07T21:16:25.815Z,1.70
2022-09-07T21:18:55.203Z,1.85
2022-09-07T21:21:23.340Z,1.38
2022-09-07T21:23:58.876Z,1.40
2022-09-07T21:26:26.420Z,1.35
2022-09-07T21:28:57.674Z,2.08
2022-09-07T21:31:24.865Z,1.23
2022-09-07T21:34:00.036Z,1.50
2022-09-07T21:36:27.440Z,1.58
2022-09-07T21:38:54.633Z,1.75
2022-09-07T21:41:23.548Z,1.50
2022-09-07T21:43:58.316Z,1.60
2022-09-07T21:46:26.044Z,1.38
2022-09-07T21:48:54.584Z,1.15
2022-09-07T21:51:21.262Z,1.52
2022-09-07T21:53:52.999Z,2.03
2022-09-07T21:56:20.495Z,1.55
2022-09-07T21:58:47.615Z,2.40
2022-09-07T22:01:17.137Z,1.70
2022-09-07T22:03:45.306Z,2.13
2022-09-07T22:06:12.672Z,1.60
2022-09-07T22:08:41.186Z,2.20
2022-09-07T22:11:10.621Z,1.75
2022-09-07T22:13:38.035Z,1.83
2022-09-07T22:16:05.875Z,1.70
2022-09-07T22:18:33.063Z,1.70
2022-09-07T22:21:06.004Z,2.15
2022-09-07T22:23:34.422Z,2.03
2022-09-07T22:26:01.336Z,1.67
2022-09-07T22:28:31.591Z,2.08
2022-09-07T22:31:31.698Z,1.63
2022-09-07T22:34:00.665Z,2.03
2022-09-07T22:36:30.355Z,2.40
2022-09-07T22:38:59.299Z,1.90
2022-09-07T22:41:28.398Z,2.00
2022-09-07T22:43:55.921Z,2.00
2022-09-07T22:46:24.573Z,1.90
2022-09-07T22:48:53.970Z,2.35
2022-09-07T22:51:21.201Z,2.17
2022-09-07T22:53:47.864Z,2.17
2022-09-07T22:56:20.282Z,2.30
2022-09-07T23:01:18.336Z,2.20
2022-09-07T23:03:45.579Z,2.10
2022-09-07T23:06:27.183Z,1.73
2022-09-07T23:08:56.084Z,2.20
2022-09-07T23:11:24.501Z,2.10
2022-09-07T23:13:56.765Z,2.00
2022-09-07T23:16:24.202Z,1.80
2022-09-07T23:18:51.655Z,2.20
2022-09-07T23:21:18.298Z,1.92
2022-09-07T23:23:50.520Z,1.88
2022-09-07T23:26:19.442Z,1.70
2022-09-07T23:28:50.053Z,1.88
2022-09-07T23:31:16.750Z,1.90
2022-09-07T23:33:43.435Z,1.95
2022-09-07T23:36:10.109Z,1.92
2022-09-07T23:38:36.784Z,1.67
2022-09-07T23:41:04.612Z,1.88
2022-09-07T23:43:31.507Z,1.52
2022-09-07T23:45:59.747Z,1.75
2022-09-07T23:48:27.047Z,1.90
2022-09-07T23:50:53.801Z,2.17
2022-09-07T23:53:21.047Z,1.83
2022-09-07T23:55:52.331Z,1.73
2022-09-07T23:58:21.026Z,1.90
